Time;durP1;ratioP1;P1;durP2;ratioP2;P2;SDS_P1;SDS_P2;PMS_P1;PMS_P2;Temp;Humidity;BMP_temperature;BMP_pressure;BME280_temperature;BME280_humidity;BME280_pressure;Samples;Min_cycle;Max_cycle;Signal;HPM_P1;HPM_P2
2020/12/31 00:00:19;;;;;;;6.40;4.00;;;;;;;-1.74;100.00;95072.84;1032953;28;20081;-70
2020/12/31 00:00:50;;;;;;;4.70;3.75;;;;;;;-1.74;100.00;95070.25;1032902;28;20486;-71
2020/12/31 00:01:23;;;;;;;4.93;3.78;;;;;;;-1.80;100.00;95065.94;1032773;28;20300;-70
2020/12/31 00:01:54;;;;;;;4.55;4.15;;;;;;;-1.82;100.00;95057.56;1029346;28;20273;-72
2020/12/31 00:02:27;;;;;;;4.93;3.63;;;;;;;-1.85;100.00;95060.59;1033092;28;20265;-71
2020/12/31 00:02:58;;;;;;;4.10;3.50;;;;;;;-1.88;100.00;95061.03;1032558;28;20054;-70
2020/12/31 00:03:30;;;;;;;5.03;3.80;;;;;;;-1.88;100.00;95066.22;1029559;28;20797;-71
2020/12/31 00:04:00;;;;;;;4.45;3.88;;;;;;;-1.92;100.00;95063.28;1028837;28;20062;-71
2020/12/31 00:04:31;;;;;;;6.20;4.05;;;;;;;-1.95;100.00;95070.69;1020985;29;20255;-78
2020/12/31 00:05:03;;;;;;;5.53;4.20;;;;;;;-1.95;100.00;95063.69;1017289;29;20035;-70
2020/12/31 00:05:34;;;;;;;4.40;4.00;;;;;;;-1.97;100.00;95062.34;1021482;29;20030;-71
2020/12/31 00:06:05;;;;;;;6.35;4.22;;;;;;;-2.03;100.00;95064.78;1017680;29;20634;-70
2020/12/31 00:06:37;;;;;;;5.03;4.45;;;;;;;-1.99;100.00;95075.50;1017518;29;20028;-71
2020/12/31 00:07:08;;;;;;;4.97;3.70;;;;;;;-2.00;100.00;95068.75;1024782;29;20279;-73
2020/12/31 00:07:41;;;;;;;4.55;3.92;;;;;;;-2.01;100.00;95067.16;1025385;28;20019;-75
2020/12/31 00:08:12;;;;;;;5.32;4.20;;;;;;;-2.02;100.00;95070.78;1020720;29;20656;-74
2020/12/31 00:08:42;;;;;;;3.92;3.33;;;;;;;-2.05;100.00;95069.38;1025582;28;20251;-71
2020/12/31 00:09:13;;;;;;;5.97;4.18;;;;;;;-2.04;100.00;95068.41;1024882;29;20103;-74
2020/12/31 00:09:44;;;;;;;4.82;4.20;;;;;;;-2.06;100.00;95067.81;1025204;28;20034;-71
2020/12/31 00:10:16;;;;;;;4.63;3.78;;;;;;;-2.07;100.00;95075.81;1028759;28;20122;-73
2020/12/31 00:10:47;;;;;;;5.15;4.60;;;;;;;-2.08;100.00;95076.81;1029396;28;20254;-72
2020/12/31 00:11:19;;;;;;;5.05;4.32;;;;;;;-2.08;100.00;95072.44;1024736;29;20278;-70
2020/12/31 00:11:49;;;;;;;4.70;4.00;;;;;;;-2.10;100.00;95079.63;1025363;28;20416;-70
2020/12/31 00:12:20;;;;;;;4.05;3.65;;;;;;;-2.09;100.00;95070.84;1020665;29;20286;-74
2020/12/31 00:12:51;;;;;;;6.68;4.13;;;;;;;-2.09;100.00;95076.00;1017325;29;20545;-71
2020/12/31 00:13:22;;;;;;;4.20;3.67;;;;;;;-2.09;100.00;95075.22;1020887;29;20031;-74
2020/12/31 00:13:52;;;;;;;4.82;4.00;;;;;;;-2.09;100.00;95073.41;1021071;29;20335;-76
2020/12/31 00:14:24;;;;;;;5.25;4.35;;;;;;;-2.10;100.00;95078.81;1025104;28;20067;-71
2020/12/31 00:14:56;;;;;;;4.55;3.88;;;;;;;-2.12;100.00;95073.06;1028764;28;20037;-76
2020/12/31 00:15:27;;;;;;;4.90;4.35;;;;;;;-2.12;100.00;95075.66;1029477;28;20321;-74
2020/12/31 00:15:58;;;;;;;5.97;4.68;;;;;;;-2.12;100.00;95066.09;1028815;28;20313;-73
2020/12/31 00:16:29;;;;;;;5.22;4.15;;;;;;;-2.12;100.00;95083.44;1024849;29;20035;-73
2020/12/31 00:16:59;;;;;;;6.00;4.50;;;;;;;-2.14;100.00;95069.88;1021138;29;20268;-71
2020/12/31 00:17:30;;;;;;;6.22;4.22;;;;;;;-2.16;100.00;95077.09;1025083;28;20031;-72
2020/12/31 00:18:00;;;;;;;5.95;3.88;;;;;;;-2.17;100.00;95070.34;1024565;28;20039;-72
2020/12/31 00:18:31;;;;;;;4.80;3.92;;;;;;;-2.16;100.00;95074.50;1028859;28;20027;-72
2020/12/31 00:19:03;;;;;;;5.05;4.35;;;;;;;-2.16;100.00;95075.31;1028993;28;20034;-77
2020/12/31 00:19:33;;;;;;;4.97;4.40;;;;;;;-2.14;100.00;95069.88;1025296;28;20019;-71
2020/12/31 00:20:05;;;;;;;5.40;4.70;;;;;;;-2.14;100.00;95069.88;1028920;28;20650;-73
2020/12/31 00:20:39;;;;;;;6.30;4.22;;;;;;;-2.16;100.00;95066.72;1021385;29;20043;-73
2020/12/31 00:21:10;;;;;;;5.00;4.40;;;;;;;-2.16;100.00;95072.72;1024994;28;20375;-72
2020/12/31 00:21:40;;;;;;;6.53;4.88;;;;;;;-2.15;100.00;95069.09;1024818;29;20291;-73
2020/12/31 00:22:11;;;;;;;5.93;4.88;;;;;;;-2.24;100.00;95062.63;1026188;28;20031;-76
2020/12/31 00:22:41;;;;;;;5.10;4.30;;;;;;;-2.23;100.00;95065.00;1032764;28;20031;-76
2020/12/31 00:23:12;;;;;;;5.40;4.35;;;;;;;-2.22;100.00;95070.97;1032947;28;20038;-74
2020/12/31 00:23:42;;;;;;;6.18;4.53;;;;;;;-2.25;100.00;95072.19;1032785;28;20085;-72
2020/12/31 00:24:13;;;;;;;4.93;4.30;;;;;;;-2.27;100.00;95071.63;1032939;28;20022;-80
2020/12/31 00:24:44;;;;;;;5.30;4.72;;;;;;;-2.28;100.00;95071.81;1028906;28;20034;-73
2020/12/31 00:25:14;;;;;;;4.78;4.32;;;;;;;-2.25;100.00;95061.03;1028867;28;20475;-77
2020/12/31 00:25:49;;;;;;;6.88;4.55;;;;;;;-2.30;100.00;95068.66;1029052;28;20037;-72
2020/12/31 00:26:19;;;;;;;5.15;4.30;;;;;;;-2.30;100.00;95066.88;1033646;28;20395;-72
2020/12/31 00:26:50;;;;;;;4.43;4.03;;;;;;;-2.29;100.00;95065.88;1037208;28;20265;-75
2020/12/31 00:27:20;;;;;;;6.07;4.57;;;;;;;-2.29;100.00;95065.06;1032725;28;20542;-71
2020/12/31 00:27:51;;;;;;;6.80;4.95;;;;;;;-2.33;100.00;95074.28;1028819;28;20035;-77
2020/12/31 00:28:22;;;;;;;5.13;4.32;;;;;;;-2.33;100.00;95064.72;1028894;28;20030;-75
2020/12/31 00:28:53;;;;;;;8.18;4.65;;;;;;;-2.32;100.00;95066.31;1029035;28;20023;-72
2020/12/31 00:29:25;;;;;;;7.55;4.90;;;;;;;-2.32;100.00;95068.09;1032058;28;20038;-72
2020/12/31 00:29:55;;;;;;;5.60;4.60;;;;;;;-2.35;100.00;95060.75;1036518;28;20418;-73
2020/12/31 00:30:26;;;;;;;5.93;4.80;;;;;;;-2.38;100.00;95061.97;1032977;28;20268;-74
2020/12/31 00:30:56;;;;;;;5.13;4.47;;;;;;;-2.39;100.00;95065.56;1032779;28;20427;-76
2020/12/31 00:31:27;;;;;;;5.72;4.50;;;;;;;-2.40;100.00;95067.38;1032950;28;20055;-73
2020/12/31 00:31:57;;;;;;;5.35;4.65;;;;;;;-2.38;100.00;95063.75;1032843;28;20018;-71
2020/12/31 00:32:29;;;;;;;5.13;4.63;;;;;;;-2.38;100.00;95066.34;1036910;28;20018;-72
2020/12/31 00:32:59;;;;;;;6.40;4.28;;;;;;;-2.40;100.00;95061.38;1037174;28;20437;-77
2020/12/31 00:33:30;;;;;;;6.07;4.50;;;;;;;-2.38;100.00;95064.53;1037138;28;20269;-76
2020/12/31 00:34:01;;;;;;;5.43;4.50;;;;;;;-2.41;100.00;95067.59;1037076;28;20018;-71
2020/12/31 00:34:32;;;;;;;7.22;5.28;;;;;;;-2.42;100.00;95066.00;1037175;28;20386;-72
2020/12/31 00:35:05;;;;;;;6.10;4.57;;;;;;;-2.40;100.00;95064.78;1032708;28;20364;-78
2020/12/31 00:35:36;;;;;;;5.47;4.40;;;;;;;-2.41;100.00;95058.00;1033028;28;20325;-75
2020/12/31 00:36:06;;;;;;;4.90;4.18;;;;;;;-2.41;100.00;95062.41;1024762;29;20468;-71
2020/12/31 00:36:37;;;;;;;7.10;4.95;;;;;;;-2.44;100.00;95058.44;1025479;28;20026;-73
2020/12/31 00:37:07;;;;;;;6.35;4.93;;;;;;;-2.48;100.00;95062.47;1028770;28;20023;-75
2020/12/31 00:37:38;;;;;;;6.75;5.25;;;;;;;-2.48;100.00;95065.06;1028937;28;20038;-75
2020/12/31 00:38:10;;;;;;;5.88;4.53;;;;;;;-2.45;100.00;95061.25;1035767;28;20037;-88
2020/12/31 00:38:40;;;;;;;6.28;4.53;;;;;;;-2.48;100.00;95062.47;1037145;28;20463;-76
2020/12/31 00:39:11;;;;;;;7.50;5.25;;;;;;;-2.45;100.00;95064.63;1037076;28;20269;-75
2020/12/31 00:39:41;;;;;;;5.70;4.40;;;;;;;-2.44;100.00;95068.81;1036998;28;20032;-78
2020/12/31 00:40:12;;;;;;;7.90;5.05;;;;;;;-2.44;100.00;95062.81;1036987;28;20120;-72
2020/12/31 00:40:43;;;;;;;6.00;4.80;;;;;;;-2.44;100.00;95060.22;1037019;28;20529;-72
2020/12/31 00:41:15;;;;;;;7.25;4.93;;;;;;;-2.45;100.00;95066.44;1032655;28;20261;-74
2020/12/31 00:41:45;;;;;;;6.45;5.00;;;;;;;-2.47;100.00;95071.03;1032348;28;20045;-82
2020/12/31 00:42:17;;;;;;;6.03;4.80;;;;;;;-2.45;100.00;95062.03;1028893;28;20295;-72
2020/12/31 00:42:47;;;;;;;5.28;4.47;;;;;;;-2.47;100.00;95069.22;1025127;28;20028;-76
2020/12/31 00:43:19;;;;;;;6.63;5.32;;;;;;;-2.48;100.00;95067.66;1028912;28;20257;-81
2020/12/31 00:43:49;;;;;;;5.07;4.57;;;;;;;-2.48;100.00;95069.44;1029190;28;20066;-74
2020/12/31 00:44:20;;;;;;;7.13;4.65;;;;;;;-2.48;100.00;95066.84;1032735;28;20368;-72
2020/12/31 00:44:50;;;;;;;6.50;4.47;;;;;;;-2.48;100.00;95059.06;1032292;28;20031;-74
2020/12/31 00:45:21;;;;;;;6.80;5.50;;;;;;;-2.49;100.00;95071.25;1032943;28;20410;-71
2020/12/31 00:45:53;;;;;;;6.32;4.50;;;;;;;-2.49;100.00;95066.06;1032835;28;20073;-75
2020/12/31 00:46:23;;;;;;;8.00;4.80;;;;;;;-2.50;100.00;95074.81;1032770;28;20476;-71
2020/12/31 00:46:56;;;;;;;6.47;4.60;;;;;;;-2.52;100.00;95065.69;1028682;28;20278;-73
2020/12/31 00:47:27;;;;;;;9.10;5.25;;;;;;;-2.53;100.00;95067.50;1024647;29;20015;-72
2020/12/31 00:47:58;;;;;;;6.93;5.35;;;;;;;-2.55;100.00;95061.75;1016809;29;20257;-73
2020/12/31 00:48:28;;;;;;;5.25;4.25;;;;;;;-2.52;100.00;95069.06;1016809;29;20275;-73
2020/12/31 00:49:00;;;;;;;6.13;4.90;;;;;;;-2.52;100.00;95074.25;1020964;29;20020;-73
2020/12/31 00:49:30;;;;;;;5.97;5.10;;;;;;;-2.55;100.00;95061.75;1032570;28;20026;-75
2020/12/31 00:50:01;;;;;;;6.32;4.80;;;;;;;-2.57;100.00;95066.34;1020720;29;20748;-74
2020/12/31 00:50:32;;;;;;;5.97;5.15;;;;;;;-2.55;100.00;95068.72;1017114;29;20404;-74
2020/12/31 00:51:03;;;;;;;5.40;4.88;;;;;;;-2.55;100.00;95064.31;1024784;29;20989;-75
2020/12/31 00:51:33;;;;;;;5.93;4.90;;;;;;;-2.62;100.00;95064.41;1020899;28;20334;-74
2020/12/31 00:52:04;;;;;;;5.25;4.60;;;;;;;-2.60;100.00;95064.97;1020669;29;20027;-74
2020/12/31 00:52:34;;;;;;;6.25;4.80;;;;;;;-2.61;100.00;95078.13;1020870;29;20040;-77
2020/12/31 00:53:05;;;;;;;6.03;4.50;;;;;;;-2.64;100.00;95071.56;1020832;29;20024;-74
2020/12/31 00:53:35;;;;;;;7.65;5.00;;;;;;;-2.70;100.00;95069.81;1024898;28;20019;-74
2020/12/31 00:54:06;;;;;;;6.78;5.35;;;;;;;-2.70;100.00;95074.22;1024967;28;20032;-72
2020/12/31 00:54:36;;;;;;;5.80;4.80;;;;;;;-2.73;100.00;95069.47;1032654;28;20091;-72
2020/12/31 00:55:07;;;;;;;5.82;4.90;;;;;;;-2.71;100.00;95070.06;1032745;28;20174;-71
2020/12/31 00:55:37;;;;;;;7.65;5.35;;;;;;;-2.70;100.00;95066.44;1032875;28;20060;-72
2020/12/31 00:56:08;;;;;;;6.53;5.13;;;;;;;-2.70;100.00;95075.00;1032620;28;20062;-75
2020/12/31 00:56:38;;;;;;;6.97;5.45;;;;;;;-2.71;100.00;95072.66;1032857;28;20014;-71
2020/12/31 00:57:08;;;;;;;6.65;5.00;;;;;;;-2.72;100.00;95069.25;1028639;28;20034;-71
2020/12/31 00:57:40;;;;;;;7.65;5.15;;;;;;;-2.73;100.00;95067.69;1028661;28;20026;-72
2020/12/31 00:58:11;;;;;;;6.28;5.13;;;;;;;-2.71;100.00;95068.25;1028735;28;20113;-73
2020/12/31 00:58:41;;;;;;;5.78;5.18;;;;;;;-2.70;100.00;95069.81;1025267;28;20263;-77
2020/12/31 00:59:11;;;;;;;6.57;5.07;;;;;;;-2.70;100.00;95072.41;1028796;28;20364;-74
2020/12/31 00:59:42;;;;;;;7.75;5.60;;;;;;;-2.68;100.00;95072.22;1028088;28;20219;-75
2020/12/31 01:00:13;;;;;;;5.80;5.03;;;;;;;-2.73;100.00;95072.84;1028764;28;20477;-74
2020/12/31 01:00:43;;;;;;;5.90;5.28;;;;;;;-2.74;100.00;95075.66;1024678;28;20024;-73
2020/12/31 01:01:14;;;;;;;6.47;5.25;;;;;;;-2.71;100.00;95070.06;1028428;28;20019;-72
2020/12/31 01:01:44;;;;;;;6.28;4.63;;;;;;;-2.69;100.00;95076.59;1024852;29;20054;-73
2020/12/31 01:02:15;;;;;;;6.10;5.40;;;;;;;-2.71;100.00;95076.03;1025037;28;20033;-71
2020/12/31 01:02:45;;;;;;;6.18;5.03;;;;;;;-2.73;100.00;95072.06;1032658;28;20006;-76
2020/12/31 01:03:16;;;;;;;6.00;4.97;;;;;;;-2.72;100.00;95073.63;1032701;28;20026;-74
2020/12/31 01:03:47;;;;;;;6.82;5.95;;;;;;;-2.73;100.00;95072.84;1036975;28;20028;-73
2020/12/31 01:04:18;;;;;;;7.30;5.53;;;;;;;-2.74;100.00;95070.47;1037054;28;20264;-83
2020/12/31 01:04:48;;;;;;;7.05;4.95;;;;;;;-2.73;100.00;95074.66;1037098;28;20022;-72
2020/12/31 01:05:19;;;;;;;7.45;5.57;;;;;;;-2.78;100.00;95069.31;1032565;28;20080;-74
2020/12/31 01:05:52;;;;;;;7.47;5.32;;;;;;;-2.77;100.00;95071.69;1028635;28;20686;-72
2020/12/31 01:06:24;;;;;;;6.30;5.45;;;;;;;-2.77;100.00;95069.09;1019773;29;20428;-72
2020/12/31 01:06:54;;;;;;;5.97;4.68;;;;;;;-2.77;100.00;95069.09;1017112;29;20338;-72
2020/12/31 01:07:26;;;;;;;7.53;5.45;;;;;;;-2.76;100.00;95075.84;1021196;29;20270;-71
2020/12/31 01:07:57;;;;;;;6.55;5.57;;;;;;;-2.77;100.00;95079.47;1025397;28;20642;-74
2020/12/31 01:08:27;;;;;;;6.57;5.22;;;;;;;-2.85;100.00;95057.22;1028926;28;20431;-74
2020/12/31 01:08:58;;;;;;;6.38;5.22;;;;;;;-2.78;100.00;95080.44;1032640;28;20105;-74
2020/12/31 01:09:28;;;;;;;5.38;4.88;;;;;;;-2.80;100.00;95070.31;1032420;28;20025;-75
2020/12/31 01:09:58;;;;;;;6.97;5.80;;;;;;;-2.79;100.00;95076.28;1032588;28;20019;-73
2020/12/31 01:10:29;;;;;;;6.45;5.32;;;;;;;-2.82;100.00;95076.69;1033718;28;20030;-71
2020/12/31 01:11:06;;;;;;;7.50;5.65;;;;;;;-2.83;100.00;95072.53;1036950;28;20018;-73
2020/12/31 01:11:38;;;;;;;6.90;5.88;;;;;;;-2.85;100.00;95072.75;1032481;28;20250;-70
2020/12/31 01:12:12;;;;;;;6.05;5.40;;;;;;;-2.87;100.00;95073.97;1024218;28;20269;-72
2020/12/31 01:12:43;;;;;;;6.53;5.00;;;;;;;-2.85;100.00;95082.31;1020711;29;20647;-73
2020/12/31 01:13:13;;;;;;;6.60;5.07;;;;;;;-2.83;100.00;95075.13;1021420;29;20290;-73
2020/12/31 01:13:44;;;;;;;5.53;5.00;;;;;;;-2.85;100.00;95077.94;1025547;28;20564;-74
2020/12/31 01:14:15;;;;;;;6.68;5.07;;;;;;;-2.84;100.00;95076.91;1028442;28;20023;-72
2020/12/31 01:14:46;;;;;;;6.97;5.88;;;;;;;-2.88;100.00;95072.38;1028042;28;20259;-72
2020/12/31 01:15:19;;;;;;;5.65;4.80;;;;;;;-2.85;100.00;95074.56;1028578;28;20077;-73
2020/12/31 01:15:50;;;;;;;6.47;5.47;;;;;;;-2.84;100.00;95078.72;1032606;28;20494;-73
2020/12/31 01:16:20;;;;;;;6.50;5.20;;;;;;;-2.87;100.00;95074.75;1027549;28;20317;-72
2020/12/31 01:16:51;;;;;;;8.80;5.40;;;;;;;-2.86;100.00;95080.72;1020839;29;20042;-76
2020/12/31 01:17:26;;;;;;;5.35;4.65;;;;;;;-2.84;100.00;95071.72;1016638;29;20031;-72
2020/12/31 01:17:59;;;;;;;6.45;5.75;;;;;;;-2.88;100.00;95073.16;1012649;29;20028;-72
2020/12/31 01:18:30;;;;;;;5.97;4.97;;;;;;;-2.89;100.00;95073.41;1014645;29;20374;-72
2020/12/31 01:19:01;;;;;;;6.13;5.20;;;;;;;-2.90;100.00;95075.16;1022502;28;20759;-72
2020/12/31 01:19:32;;;;;;;5.45;4.70;;;;;;;-2.90;100.00;95074.38;1026309;28;20259;-72
2020/12/31 01:20:04;;;;;;;7.30;6.13;;;;;;;-2.89;100.00;95075.97;1032469;28;20576;-76
2020/12/31 01:20:34;;;;;;;5.63;4.75;;;;;;;-2.87;100.00;95069.59;1032519;28;20027;-76
2020/12/31 01:21:11;;;;;;;5.63;5.00;;;;;;;-2.84;100.00;95073.53;1028403;28;20266;-72
2020/12/31 01:21:48;;;;;;;8.50;5.65;;;;;;;-2.86;100.00;95080.72;1028477;28;20482;-72
2020/12/31 01:22:19;;;;;;;7.25;5.80;;;;;;;-2.89;100.00;95081.16;1028680;28;20624;-73
2020/12/31 01:22:51;;;;;;;6.03;5.43;;;;;;;-2.88;100.00;95080.16;1022557;29;20263;-74
2020/12/31 01:23:24;;;;;;;7.20;5.75;;;;;;;-2.95;100.00;95077.63;1020358;29;20028;-71
2020/12/31 01:23:56;;;;;;;6.20;5.60;;;;;;;-2.94;100.00;95078.41;1016571;29;20265;-77
2020/12/31 01:24:26;;;;;;;6.32;5.55;;;;;;;-2.96;100.00;95077.81;1017491;29;20311;-75
2020/12/31 01:24:57;;;;;;;7.15;6.05;;;;;;;-2.94;100.00;95075.81;1021533;28;20023;-71
2020/12/31 01:25:28;;;;;;;6.10;5.45;;;;;;;-2.98;100.00;95072.06;1028550;28;20034;-72
2020/12/31 01:26:00;;;;;;;6.78;5.95;;;;;;;-3.01;100.00;95084.41;1024109;29;20035;-70
2020/12/31 01:26:33;;;;;;;9.07;6.13;;;;;;;-3.02;100.00;95085.41;1024968;28;20278;-76
2020/12/31 01:27:05;;;;;;;8.23;5.97;;;;;;;-3.04;100.00;95084.81;1028517;28;20031;-76
2020/12/31 01:27:38;;;;;;;8.73;6.32;;;;;;;-3.05;100.00;95078.09;1030482;28;20277;-81
2020/12/31 01:28:09;;;;;;;7.60;5.93;;;;;;;-3.05;100.00;95080.66;1032587;28;20114;-77
2020/12/31 01:28:39;;;;;;;5.85;5.25;;;;;;;-3.06;100.00;95086.06;1032420;28;20309;-71
2020/12/31 01:29:10;;;;;;;6.95;5.65;;;;;;;-3.04;100.00;95084.81;1032548;28;20078;-72
2020/12/31 01:29:41;;;;;;;8.32;6.40;;;;;;;-3.04;100.00;95074.47;1032145;28;20030;-78
2020/12/31 01:30:11;;;;;;;6.50;5.80;;;;;;;-3.06;100.00;95080.88;1036936;28;20029;-82
2020/12/31 01:30:42;;;;;;;9.52;6.03;;;;;;;-3.09;100.00;95076.91;1036988;28;20029;-76
2020/12/31 01:31:13;;;;;;;7.65;5.93;;;;;;;-3.07;100.00;95080.09;1036705;28;20272;-72
2020/12/31 01:31:48;;;;;;;7.63;5.68;;;;;;;-3.06;100.00;95083.47;1032476;28;20011;-73
2020/12/31 01:32:26;;;;;;;6.63;5.93;;;;;;;-3.06;100.00;95080.88;1032607;28;20404;-73
2020/12/31 01:33:02;;;;;;;5.95;5.35;;;;;;;-3.05;100.00;95080.66;1032564;28;20659;-82
2020/12/31 01:33:35;;;;;;;6.53;5.55;;;;;;;-3.04;100.00;95079.66;1031075;28;20702;-78
2020/12/31 01:34:06;;;;;;;6.78;5.80;;;;;;;-3.05;100.00;95072.13;1032401;28;20277;-73
2020/12/31 01:34:38;;;;;;;5.78;4.93;;;;;;;-3.07;100.00;95077.50;1032597;28;20587;-74
2020/12/31 01:35:08;;;;;;;7.10;6.10;;;;;;;-3.04;100.00;95081.47;1032559;28;20026;-73
2020/12/31 01:35:39;;;;;;;7.03;5.72;;;;;;;-3.05;100.00;95085.84;1024675;29;20330;-72
2020/12/31 01:36:09;;;;;;;6.20;5.38;;;;;;;-3.07;100.00;95074.91;1024654;29;20539;-72
2020/12/31 01:36:41;;;;;;;5.97;5.35;;;;;;;-3.06;100.00;95076.47;1020458;29;20043;-72
2020/12/31 01:37:11;;;;;;;6.05;5.55;;;;;;;-3.08;100.00;95075.91;1016689;29;20043;-77
2020/12/31 01:37:41;;;;;;;7.30;5.65;;;;;;;-3.11;100.00;95071.16;1016548;29;20360;-71
2020/12/31 01:38:13;;;;;;;6.43;5.53;;;;;;;-3.06;100.00;95073.91;1024490;28;20404;-73
2020/12/31 01:38:44;;;;;;;7.85;5.97;;;;;;;-3.10;100.00;95066.78;1024362;28;20102;-77
2020/12/31 01:39:15;;;;;;;7.13;5.68;;;;;;;-3.05;100.00;95072.91;1028458;28;20281;-73
2020/12/31 01:39:46;;;;;;;7.18;5.65;;;;;;;-3.04;100.00;95074.47;1024673;29;20274;-74
2020/12/31 01:40:16;;;;;;;6.80;6.07;;;;;;;-3.06;100.00;95073.09;1024755;28;20066;-73
2020/12/31 01:40:49;;;;;;;6.20;5.60;;;;;;;-3.06;100.00;95075.69;1024609;28;20174;-73
2020/12/31 01:41:24;;;;;;;6.47;5.53;;;;;;;-3.07;100.00;95074.09;1024963;28;20035;-78
2020/12/31 01:41:54;;;;;;;5.75;5.15;;;;;;;-3.09;100.00;95069.16;1028574;28;20845;-76
2020/12/31 01:42:25;;;;;;;7.22;5.45;;;;;;;-3.07;100.00;95071.50;1029308;28;20313;-75
2020/12/31 01:42:55;;;;;;;6.57;5.30;;;;;;;-3.08;100.00;95069.94;1033278;28;20402;-71
2020/12/31 01:43:26;;;;;;;6.82;5.82;;;;;;;-3.08;100.00;95062.97;1036659;28;20026;-71
2020/12/31 01:44:07;;;;;;;7.90;5.45;;;;;;;-3.05;100.00;95069.53;1036129;28;20093;-78
2020/12/31 01:44:37;;;;;;;6.53;5.40;;;;;;;-3.12;100.00;95064.38;1032249;28;20030;-73
2020/12/31 01:45:08;;;;;;;8.73;6.18;;;;;;;-3.07;100.00;95067.16;1032358;28;20369;-75
2020/12/31 01:45:38;;;;;;;8.38;5.60;;;;;;;-3.11;100.00;95067.75;1032349;28;20037;-71
2020/12/31 01:46:12;;;;;;;6.78;5.30;;;;;;;-3.11;100.00;95068.56;1032433;28;20037;-75
2020/12/31 01:46:44;;;;;;;5.85;5.25;;;;;;;-3.11;100.00;95063.41;1033038;28;20026;-71
2020/12/31 01:47:15;;;;;;;7.38;5.63;;;;;;;-3.14;100.00;95066.38;1037038;28;20276;-71
2020/12/31 01:47:47;;;;;;;6.38;5.47;;;;;;;-3.12;100.00;95066.19;1032205;28;20254;-72
2020/12/31 01:48:17;;;;;;;6.32;5.72;;;;;;;-3.13;100.00;95059.41;1032037;28;20273;-70
2020/12/31 01:48:48;;;;;;;6.53;5.68;;;;;;;-3.11;100.00;95060.81;1028375;28;20022;-71
2020/12/31 01:49:19;;;;;;;5.70;5.15;;;;;;;-3.06;100.00;95057.59;1028316;28;20038;-72
2020/12/31 01:49:50;;;;;;;6.70;5.75;;;;;;;-3.04;100.00;95058.94;1024282;29;20082;-73
2020/12/31 01:50:20;;;;;;;6.28;5.53;;;;;;;-3.00;100.00;95064.50;1020634;29;20673;-70
2020/12/31 01:50:51;;;;;;;7.20;5.63;;;;;;;-3.02;100.00;95067.28;1020682;29;20027;-71
2020/12/31 01:51:22;;;;;;;6.90;5.05;;;;;;;-3.05;100.00;95062.56;1024321;29;20031;-72
2020/12/31 01:51:54;;;;;;;6.10;5.50;;;;;;;-3.06;100.00;95060.94;1020971;28;20023;-71
2020/12/31 01:52:26;;;;;;;6.55;5.85;;;;;;;-3.06;100.00;95070.53;1032365;28;20034;-74
2020/12/31 01:52:56;;;;;;;6.82;5.95;;;;;;;-3.11;100.00;95062.59;1032284;28;20284;-70
2020/12/31 01:53:27;;;;;;;6.55;5.28;;;;;;;-3.13;100.00;95059.41;1024829;28;20620;-71
2020/12/31 01:53:58;;;;;;;8.68;6.43;;;;;;;-3.10;100.00;95056.41;1024300;29;20019;-71
2020/12/31 01:54:29;;;;;;;6.65;5.43;;;;;;;-3.10;100.00;95057.19;1016613;29;20116;-74
2020/12/31 01:55:02;;;;;;;6.28;5.43;;;;;;;-3.09;100.00;95058.00;1024484;29;20389;-70
2020/12/31 01:55:33;;;;;;;6.90;5.15;;;;;;;-3.04;100.00;95052.97;1024404;29;20020;-71
2020/12/31 01:56:06;;;;;;;7.45;5.88;;;;;;;-3.03;100.00;95055.38;1021378;28;20339;-71
2020/12/31 01:56:37;;;;;;;6.40;5.20;;;;;;;-3.00;100.00;95056.72;1021150;29;20366;-73
2020/12/31 01:57:07;;;;;;;8.50;5.50;;;;;;;-2.97;100.00;95058.09;1020210;29;20632;-71
2020/12/31 01:57:38;;;;;;;7.03;5.70;;;;;;;-3.01;100.00;95052.56;1016384;29;20021;-72
2020/12/31 01:58:09;;;;;;;6.50;5.18;;;;;;;-2.95;100.00;95061.28;1012734;29;20029;-70
2020/12/31 01:58:39;;;;;;;7.07;5.50;;;;;;;-2.94;100.00;95062.88;1016800;29;20020;-71
2020/12/31 01:59:11;;;;;;;6.22;5.63;;;;;;;-2.91;100.00;95063.25;1024673;28;20113;-74
2020/12/31 01:59:41;;;;;;;6.25;5.25;;;;;;;-2.90;100.00;95058.84;1032692;28;20388;-74
2020/12/31 02:00:12;;;;;;;8.52;5.65;;;;;;;-2.92;100.00;95056.47;1036731;28;20490;-72
2020/12/31 02:00:42;;;;;;;6.03;5.15;;;;;;;-2.96;100.00;95060.47;1036898;28;20022;-72
2020/12/31 02:01:13;;;;;;;6.32;5.43;;;;;;;-2.95;100.00;95056.09;1036596;28;20014;-72
2020/12/31 02:01:43;;;;;;;6.75;5.65;;;;;;;-2.97;100.00;95048.56;1032646;28;20082;-73
2020/12/31 02:02:14;;;;;;;6.68;6.00;;;;;;;-2.90;100.00;95064.03;1032357;28;20102;-72
2020/12/31 02:02:44;;;;;;;5.78;5.18;;;;;;;-2.91;100.00;95057.28;1032502;28;20467;-71
2020/12/31 02:03:14;;;;;;;6.60;5.65;;;;;;;-2.92;100.00;95050.50;1032534;28;20422;-71
2020/12/31 02:03:50;;;;;;;7.25;5.20;;;;;;;-2.98;100.00;95046.97;1036773;28;20029;-69
2020/12/31 02:04:21;;;;;;;6.20;5.60;;;;;;;-2.94;100.00;95057.69;1036594;28;20050;-70
2020/12/31 02:04:51;;;;;;;6.85;5.85;;;;;;;-2.89;100.00;95058.66;1032341;28;20268;-72
2020/12/31 02:05:23;;;;;;;8.43;5.15;;;;;;;-2.83;100.00;95057.00;1024576;29;20066;-71
2020/12/31 02:05:53;;;;;;;5.82;5.22;;;;;;;-2.77;100.00;95058.75;1024002;28;20358;-71
2020/12/31 02:06:26;;;;;;;7.65;5.45;;;;;;;-2.75;100.00;95051.56;1024294;29;20027;-71
2020/12/31 02:06:56;;;;;;;6.53;5.50;;;;;;;-2.79;100.00;95050.41;1017663;28;20036;-71
2020/12/31 02:07:29;;;;;;;7.13;5.10;;;;;;;-2.78;100.00;95046.78;1024348;29;20259;-71
2020/12/31 02:08:00;;;;;;;6.97;5.30;;;;;;;-2.85;100.00;95046.06;1016276;29;20272;-71
2020/12/31 02:08:32;;;;;;;5.60;5.10;;;;;;;-2.81;100.00;95050.59;1012032;29;20400;-71
2020/12/31 02:09:02;;;;;;;7.32;5.72;;;;;;;-2.80;100.00;95053.97;1016425;29;20260;-73
2020/12/31 02:09:33;;;;;;;6.65;5.50;;;;;;;-2.83;100.00;95046.66;1020421;29;20031;-72
2020/12/31 02:10:05;;;;;;;6.45;5.63;;;;;;;-2.80;100.00;95049.59;1016475;29;20091;-70
2020/12/31 02:10:35;;;;;;;6.10;5.47;;;;;;;-2.80;100.00;95051.41;1016241;29;20570;-72
2020/12/31 02:11:06;;;;;;;6.78;5.35;;;;;;;-2.74;100.00;95053.13;1016517;29;20264;-72
2020/12/31 02:11:36;;;;;;;6.88;5.70;;;;;;;-2.80;100.00;95053.97;1020212;28;20040;-72
2020/12/31 02:12:08;;;;;;;5.85;5.10;;;;;;;-2.74;100.00;95057.53;1026599;28;20027;-72
2020/12/31 02:12:39;;;;;;;6.55;5.68;;;;;;;-2.74;100.00;95055.72;1024356;29;20039;-72
2020/12/31 02:13:09;;;;;;;5.60;5.00;;;;;;;-2.67;100.00;95059.06;1020730;29;20311;-73
2020/12/31 02:13:41;;;;;;;6.82;5.38;;;;;;;-2.60;100.00;95053.81;1024701;28;20023;-71
2020/12/31 02:14:17;;;;;;;5.55;5.05;;;;;;;-2.61;100.00;95055.59;1024331;28;20126;-72
2020/12/31 02:14:50;;;;;;;7.63;6.28;;;;;;;-2.59;100.00;95058.00;1026413;28;20627;-71
2020/12/31 02:15:20;;;;;;;6.85;5.07;;;;;;;-2.53;100.00;95058.94;1028349;28;20298;-72
2020/12/31 02:15:51;;;;;;;6.80;5.28;;;;;;;-2.55;100.00;95053.19;1029258;28;20354;-76
2020/12/31 02:16:28;;;;;;;6.13;5.55;;;;;;;-2.50;100.00;95059.28;1028954;28;20067;-70
2020/12/31 02:16:59;;;;;;;5.43;4.90;;;;;;;-2.36;100.00;95054.75;1031973;28;20041;-72
2020/12/31 02:17:29;;;;;;;6.38;5.63;;;;;;;-2.28;100.00;95049.31;1028319;28;20740;-72
2020/12/31 02:18:00;;;;;;;5.40;4.90;;;;;;;-2.28;100.00;95054.50;1025361;28;20476;-71
2020/12/31 02:18:30;;;;;;;6.10;5.07;;;;;;;-2.31;100.00;95054.91;1028806;28;20019;-72
2020/12/31 02:19:04;;;;;;;6.47;5.47;;;;;;;-2.29;100.00;95054.72;1024327;28;20016;-72
2020/12/31 02:19:37;;;;;;;5.72;4.95;;;;;;;-2.23;100.00;95054.63;1028562;28;20456;-71
2020/12/31 02:20:08;;;;;;;5.32;4.82;;;;;;;-2.13;100.00;95055.94;1031352;28;20351;-73
2020/12/31 02:20:38;;;;;;;4.97;4.55;;;;;;;-2.15;100.00;95053.56;1033972;28;20745;-73
2020/12/31 02:21:09;;;;;;;6.40;5.05;;;;;;;-2.12;100.00;95052.31;1036454;28;20053;-71
2020/12/31 02:21:46;;;;;;;6.05;5.45;;;;;;;-2.14;100.00;95059.53;1031882;28;20176;-72
2020/12/31 02:22:16;;;;;;;6.05;5.50;;;;;;;-2.14;100.00;95055.16;1028289;28;20262;-72
2020/12/31 02:22:47;;;;;;;7.00;5.20;;;;;;;-2.17;100.00;95050.38;1029207;28;20259;-72
2020/12/31 02:23:17;;;;;;;6.57;5.20;;;;;;;-2.14;100.00;95051.75;1033240;28;20042;-71
2020/12/31 02:23:48;;;;;;;7.03;5.75;;;;;;;-2.11;100.00;95053.91;1036291;28;20018;-73
2020/12/31 02:24:19;;;;;;;6.75;5.40;;;;;;;-2.10;100.00;95055.50;1040717;28;20377;-72
2020/12/31 02:24:51;;;;;;;6.43;5.80;;;;;;;-2.09;100.00;95051.91;1040751;28;20381;-71
2020/12/31 02:25:22;;;;;;;6.15;5.25;;;;;;;-2.20;100.00;95056.00;1036441;28;20083;-71